createdAt,value
2017-12-10T00:00:07.726Z,19.3
2017-12-10T00:02:10.613Z,19.4
2017-12-10T00:04:05.620Z,19.4
2017-12-10T00:06:05.410Z,19.3
2017-12-10T00:08:07.772Z,19.4
2017-12-10T00:10:05.549Z,19.4
2017-12-10T00:12:05.281Z,19.4
2017-12-10T00:14:04.677Z,19.3
2017-12-10T00:16:05.455Z,19.3
2017-12-10T00:18:05.507Z,19.3
2017-12-10T00:20:05.344Z,19.3
2017-12-10T00:22:09.704Z,19.3
2017-12-10T00:24:05.513Z,19.3
2017-12-10T00:26:05.319Z,19.3
2017-12-10T00:28:05.317Z,19.3
2017-12-10T00:30:05.104Z,19.3
2017-12-10T00:32:07.368Z,19.3
2017-12-10T00:34:05.134Z,19.3
2017-12-10T00:36:04.874Z,19.3
2017-12-10T00:38:04.848Z,19.3
2017-12-10T00:40:10.024Z,19.3
2017-12-10T00:42:04.987Z,19.3
2017-12-10T00:44:07.347Z,19.3
2017-12-10T00:46:05.105Z,19.3
2017-12-10T00:48:05.084Z,19.3
2017-12-10T00:50:05.557Z,19.3
2017-12-10T00:52:05.577Z,19.3
2017-12-10T00:54:05.558Z,19.3
2017-12-10T00:56:05.378Z,19.4
2017-12-10T00:58:05.380Z,19.3
2017-12-10T01:00:05.600Z,19.3
2017-12-10T01:02:05.473Z,19.3
2017-12-10T01:04:05.351Z,19.3
2017-12-10T01:06:05.321Z,19.4
2017-12-10T01:08:05.084Z,19.4
2017-12-10T01:10:05.166Z,19.3
2017-12-10T01:12:04.985Z,19.4
2017-12-10T01:14:04.779Z,19.4
2017-12-10T01:16:05.485Z,19.4
2017-12-10T01:18:08.011Z,19.3
2017-12-10T01:20:07.270Z,19.3
2017-12-10T01:22:05.072Z,19.3
2017-12-10T01:24:04.839Z,19.3
2017-12-10T01:26:05.643Z,19.3
2017-12-10T01:28:05.425Z,19.3
2017-12-10T01:30:05.176Z,19.3
2017-12-10T01:32:04.980Z,19.3
2017-12-10T01:34:04.785Z,19.3
2017-12-10T01:36:08.118Z,19.3
2017-12-10T01:38:04.836Z,19.3
2017-12-10T01:40:04.804Z,19.3
2017-12-10T01:42:05.676Z,19.3
2017-12-10T01:44:05.449Z,19.3
2017-12-10T01:46:05.208Z,19.3
2017-12-10T01:48:05.669Z,19.3
2017-12-10T01:50:05.413Z,19.3
2017-12-10T01:52:05.150Z,19.3
2017-12-10T01:54:05.577Z,19.3
2017-12-10T01:56:05.418Z,19.3
2017-12-10T01:58:05.198Z,19.3
2017-12-10T02:00:05.515Z,19.3
2017-12-10T02:02:05.307Z,19.3
2017-12-10T02:04:05.276Z,19.2
2017-12-10T02:06:05.061Z,19.2
2017-12-10T02:08:07.377Z,19.3
2017-12-10T02:10:07.250Z,19.3
2017-12-10T02:12:05.020Z,19.3
2017-12-10T02:14:12.451Z,19.2
2017-12-10T02:16:05.600Z,19.2
2017-12-10T02:18:05.570Z,19.2
2017-12-10T02:20:05.287Z,19.2
2017-12-10T02:22:05.043Z,19.2
2017-12-10T02:24:04.858Z,19.2
2017-12-10T02:26:05.689Z,19.2
2017-12-10T02:28:05.392Z,19.2
2017-12-10T02:30:07.800Z,19.2
2017-12-10T02:32:08.102Z,19.2
2017-12-10T02:34:05.189Z,19.2
2017-12-10T02:36:06.583Z,19.2
2017-12-10T02:38:10.399Z,19.2
2017-12-10T02:40:05.182Z,19.2
2017-12-10T02:42:05.509Z,19.2
2017-12-10T02:44:05.360Z,19.3
2017-12-10T02:46:05.109Z,19.2
2017-12-10T02:48:04.971Z,19.2
2017-12-10T02:50:04.957Z,19.2
2017-12-10T02:52:04.731Z,19.2
2017-12-10T02:54:04.675Z,19.2
2017-12-10T02:56:04.996Z,19.2
2017-12-10T02:58:05.058Z,19.2
2017-12-10T03:00:04.814Z,19.2
2017-12-10T03:02:08.176Z,19.2
2017-12-10T03:04:04.971Z,19.2
2017-12-10T03:06:05.018Z,19.2
2017-12-10T03:08:04.905Z,19.2
2017-12-10T03:10:04.951Z,19.2
2017-12-10T03:12:07.221Z,19.2
2017-12-10T03:14:05.546Z,19.2
2017-12-10T03:16:07.646Z,19.2
2017-12-10T03:18:05.598Z,19.2
2017-12-10T03:20:05.364Z,19.2
2017-12-10T03:22:05.157Z,19.2
2017-12-10T03:24:05.012Z,19.2
2017-12-10T03:26:05.319Z,19.1
2017-12-10T03:28:07.696Z,19.1
2017-12-10T03:30:04.646Z,19.1
2017-12-10T03:32:05.440Z,19.2
2017-12-10T03:34:05.182Z,19.2
2017-12-10T03:36:05.938Z,19.1
2017-12-10T03:38:04.682Z,19.1
2017-12-10T03:40:05.426Z,19.1
2017-12-10T03:42:05.146Z,19.1
2017-12-10T03:44:04.917Z,19.1
2017-12-10T03:46:07.228Z,19.1
2017-12-10T03:48:05.056Z,19.1
2017-12-10T03:50:09.926Z,19
2017-12-10T03:52:07.178Z,19
2017-12-10T03:54:04.938Z,19
2017-12-10T03:56:04.924Z,19
2017-12-10T03:58:09.736Z,19
2017-12-10T04:00:05.472Z,19
2017-12-10T04:02:05.232Z,19
2017-12-10T04:04:07.529Z,19
2017-12-10T04:06:05.267Z,19
2017-12-10T04:08:05.029Z,19
2017-12-10T04:10:05.301Z,19
2017-12-10T04:12:05.085Z,19
2017-12-10T04:14:04.806Z,19
2017-12-10T04:16:08.133Z,19
2017-12-10T04:18:05.076Z,19
2017-12-10T04:20:07.391Z,19
2017-12-10T04:22:07.674Z,19
2017-12-10T04:24:05.047Z,19
2017-12-10T04:26:04.946Z,19
2017-12-10T04:28:09.745Z,19
2017-12-10T04:30:10.609Z,19
2017-12-10T04:32:05.477Z,19
2017-12-10T04:34:05.197Z,19
2017-12-10T04:36:04.934Z,18.9
2017-12-10T04:38:07.221Z,19
2017-12-10T04:40:07.499Z,18.9
2017-12-10T04:42:05.364Z,18.9
2017-12-10T04:44:05.124Z,18.9
2017-12-10T04:46:04.916Z,18.9
2017-12-10T04:48:04.666Z,18.9
2017-12-10T04:50:05.441Z,18.9
2017-12-10T04:52:05.226Z,19
2017-12-10T04:54:10.073Z,19
2017-12-10T04:56:07.379Z,19
2017-12-10T04:58:10.145Z,19
2017-12-10T05:00:04.922Z,19
2017-12-10T05:02:04.765Z,19
2017-12-10T05:04:05.548Z,19
2017-12-10T05:06:07.845Z,19
2017-12-10T05:08:05.639Z,19
2017-12-10T05:10:07.908Z,19
2017-12-10T05:12:07.204Z,19
2017-12-10T05:14:10.054Z,19
2017-12-10T05:16:04.858Z,19
2017-12-10T05:18:05.051Z,19
2017-12-10T05:20:04.856Z,18.9
2017-12-10T05:22:05.630Z,18.9
2017-12-10T05:24:10.521Z,19
2017-12-10T05:26:05.293Z,19
2017-12-10T05:28:05.090Z,19
2017-12-10T05:30:05.053Z,19
2017-12-10T05:32:04.837Z,19
2017-12-10T05:34:05.627Z,19
2017-12-10T05:36:10.511Z,19
2017-12-10T05:38:07.845Z,19
2017-12-10T05:40:05.637Z,19
2017-12-10T05:42:05.410Z,19
2017-12-10T05:44:05.265Z,18.9
2017-12-10T05:46:05.032Z,19
2017-12-10T05:48:05.313Z,19
2017-12-10T05:50:05.100Z,19
2017-12-10T05:52:10.688Z,19
2017-12-10T05:54:05.236Z,19
2017-12-10T05:56:05.021Z,19
2017-12-10T05:58:04.816Z,19.1
2017-12-10T06:00:10.603Z,19.1
2017-12-10T06:02:10.408Z,19.1
2017-12-10T06:04:05.145Z,19.1
2017-12-10T06:06:04.895Z,19.1
2017-12-10T06:08:05.172Z,19.1
2017-12-10T06:10:04.933Z,19.2
2017-12-10T06:12:04.697Z,19.2
2017-12-10T06:14:05.500Z,19.1
2017-12-10T06:16:05.261Z,19.1
2017-12-10T06:18:05.278Z,19.1
2017-12-10T06:20:07.582Z,19.1
2017-12-10T06:22:10.584Z,19.1
2017-12-10T06:24:07.894Z,19
2017-12-10T06:26:07.762Z,19
2017-12-10T06:28:08.114Z,19.1
2017-12-10T06:30:05.425Z,19.1
2017-12-10T06:32:05.191Z,19.1
2017-12-10T06:34:07.494Z,19.1
2017-12-10T06:36:05.203Z,19.1
2017-12-10T06:38:04.942Z,19.1
2017-12-10T06:40:04.739Z,19.2
2017-12-10T06:42:05.471Z,19.2
2017-12-10T06:44:05.267Z,19.2
2017-12-10T06:46:04.987Z,19.2
2017-12-10T06:48:04.801Z,19.2
2017-12-10T06:50:05.613Z,19.2
2017-12-10T06:52:04.881Z,19.2
2017-12-10T06:54:05.734Z,19.2
2017-12-10T06:56:05.491Z,19.2
2017-12-10T06:58:07.826Z,19.1
2017-12-10T07:00:05.639Z,19.1
2017-12-10T07:02:07.957Z,19.1
2017-12-10T07:04:04.754Z,19.1
2017-12-10T07:06:05.554Z,19.2
2017-12-10T07:08:07.940Z,19.1
2017-12-10T07:10:04.676Z,19.1
2017-12-10T07:12:05.445Z,19.1
2017-12-10T07:14:05.213Z,19.1
2017-12-10T07:16:05.167Z,19.2
2017-12-10T07:18:05.275Z,19.2
2017-12-10T07:20:05.046Z,19.2
2017-12-10T07:22:04.800Z,19.2
2017-12-10T07:24:13.109Z,19.2
2017-12-10T07:26:04.968Z,19.2
2017-12-10T07:28:05.294Z,19.2
2017-12-10T07:30:08.094Z,19.2
2017-12-10T07:32:10.453Z,19.2
2017-12-10T07:34:05.211Z,19.2
2017-12-10T07:36:04.976Z,19.2
2017-12-10T07:38:04.757Z,19.2
2017-12-10T07:40:05.521Z,19.2
2017-12-10T07:42:05.323Z,19.2
2017-12-10T07:44:05.297Z,19.2
2017-12-10T07:46:05.127Z,19.2
2017-12-10T07:48:04.881Z,19.2
2017-12-10T07:50:12.354Z,19.2
2017-12-10T07:52:07.682Z,19.2
2017-12-10T07:54:05.498Z,19.2
2017-12-10T07:56:05.310Z,19.2
2017-12-10T07:58:05.639Z,19.2
2017-12-10T08:00:05.395Z,19.2
2017-12-10T08:02:04.649Z,19.2
2017-12-10T08:04:05.355Z,19.2
2017-12-10T08:06:10.201Z,19.2
2017-12-10T08:08:04.973Z,19.2
2017-12-10T08:10:07.366Z,19.2
2017-12-10T08:12:05.091Z,19.2
2017-12-10T08:14:04.868Z,19.2
2017-12-10T08:16:07.248Z,19.2
2017-12-10T08:18:05.183Z,19.2
2017-12-10T08:20:04.997Z,19.2
2017-12-10T08:22:04.853Z,19.2
2017-12-10T08:24:05.554Z,19.2
2017-12-10T08:26:05.347Z,19.2
2017-12-10T08:28:05.204Z,19.2
2017-12-10T08:30:05.155Z,19.2
2017-12-10T08:32:04.920Z,19.2
2017-12-10T08:34:04.662Z,19.2
2017-12-10T08:36:06.406Z,19.2
2017-12-10T08:38:07.520Z,19.2
2017-12-10T08:40:07.828Z,19.2
2017-12-10T08:42:05.575Z,19.2
2017-12-10T08:44:05.454Z,19.2
2017-12-10T08:46:07.256Z,19.1
2017-12-10T08:48:10.589Z,19.1
2017-12-10T08:50:05.340Z,19.1
2017-12-10T08:52:05.143Z,19.1
2017-12-10T08:54:04.954Z,19.1
2017-12-10T08:56:04.707Z,19
2017-12-10T08:58:05.801Z,19
2017-12-10T09:00:05.263Z,18.9
2017-12-10T09:02:05.000Z,19
2017-12-10T09:04:04.985Z,19
2017-12-10T09:06:09.189Z,19
2017-12-10T09:08:05.345Z,19
2017-12-10T09:10:05.603Z,19
2017-12-10T09:12:05.115Z,18.9
2017-12-10T09:14:05.070Z,19
2017-12-10T09:16:12.448Z,19
2017-12-10T09:18:10.200Z,18.9
2017-12-10T09:20:05.287Z,19
2017-12-10T09:22:05.028Z,19
2017-12-10T09:24:04.664Z,18.9
2017-12-10T09:26:05.482Z,18.9
2017-12-10T09:28:05.259Z,19
2017-12-10T09:30:05.283Z,19
2017-12-10T09:32:15.241Z,18.9
2017-12-10T09:34:07.500Z,19
2017-12-10T09:36:04.884Z,19
2017-12-10T09:38:05.682Z,19
2017-12-10T09:40:05.365Z,19
2017-12-10T09:42:10.237Z,19
2017-12-10T09:44:05.488Z,19
2017-12-10T09:46:06.489Z,19
2017-12-10T09:48:04.809Z,19
2017-12-10T09:50:05.648Z,19
2017-12-10T09:52:05.380Z,19
2017-12-10T09:54:07.984Z,19
2017-12-10T09:56:06.105Z,19
2017-12-10T09:58:17.744Z,19
2017-12-10T10:00:05.495Z,19
2017-12-10T10:02:05.382Z,19.1
2017-12-10T10:04:08.130Z,19.1
2017-12-10T10:06:10.845Z,19.1
2017-12-10T10:08:05.349Z,19.1
2017-12-10T10:10:05.140Z,19.1
2017-12-10T10:12:05.283Z,19.1
2017-12-10T10:14:05.048Z,19.1
2017-12-10T10:16:04.779Z,19.1
2017-12-10T10:18:04.744Z,19.2
2017-12-10T10:20:05.031Z,19.2
2017-12-10T10:22:10.284Z,19.2
2017-12-10T10:24:05.028Z,19.2
2017-12-10T10:26:05.023Z,19.2
2017-12-10T10:28:05.282Z,19.2
2017-12-10T10:30:07.547Z,19.2
2017-12-10T10:32:04.745Z,19.2
2017-12-10T10:34:05.218Z,19.2
2017-12-10T10:36:05.491Z,19.3
2017-12-10T10:38:05.168Z,19.3
2017-12-10T10:40:15.216Z,19.3
2017-12-10T10:42:05.718Z,19.3
2017-12-10T10:44:07.384Z,19.4
2017-12-10T10:46:07.700Z,19.4
2017-12-10T10:48:05.580Z,19.4
2017-12-10T10:50:05.390Z,19.4
2017-12-10T10:52:05.396Z,19.4
2017-12-10T10:54:10.188Z,19.4
2017-12-10T10:56:05.719Z,19.4
2017-12-10T10:58:05.460Z,19.4
2017-12-10T11:00:05.424Z,19.3
2017-12-10T11:02:09.020Z,19.3
2017-12-10T11:04:05.202Z,19.3
2017-12-10T11:06:05.710Z,19.4
2017-12-10T11:08:04.671Z,19.4
2017-12-10T11:10:14.929Z,19.5
2017-12-10T11:12:06.221Z,19.5
2017-12-10T11:14:10.048Z,19.5
2017-12-10T11:16:05.008Z,19.5
2017-12-10T11:18:05.261Z,19.5
2017-12-10T11:20:05.475Z,19.5
2017-12-10T11:22:05.281Z,19.4
2017-12-10T11:24:05.101Z,19.5
2017-12-10T11:26:05.412Z,19.5
2017-12-10T11:28:05.531Z,19.5
2017-12-10T11:30:05.575Z,19.5
2017-12-10T11:32:07.253Z,19.5
2017-12-10T11:34:05.012Z,19.5
2017-12-10T11:36:05.357Z,19.5
2017-12-10T11:38:05.088Z,19.5
2017-12-10T11:40:05.204Z,19.5
2017-12-10T11:42:05.406Z,19.5
2017-12-10T11:44:05.449Z,19.6
2017-12-10T11:46:05.166Z,19.6
2017-12-10T11:48:04.899Z,19.6
2017-12-10T11:50:10.962Z,19.6
2017-12-10T11:52:05.798Z,19.6
2017-12-10T11:54:05.177Z,19.6
2017-12-10T11:56:13.934Z,19.6
2017-12-10T11:58:14.695Z,19.6
2017-12-10T12:00:05.046Z,19.7
2017-12-10T12:02:05.063Z,19.7
2017-12-10T12:04:07.731Z,19.7
2017-12-10T12:06:05.451Z,19.7
2017-12-10T12:08:04.905Z,19.7
2017-12-10T12:10:04.630Z,19.7
2017-12-10T12:12:05.363Z,19.7
2017-12-10T12:14:05.124Z,19.7
2017-12-10T12:16:04.832Z,19.7
2017-12-10T12:18:04.804Z,19.7
2017-12-10T12:20:05.107Z,19.7
2017-12-10T12:22:04.890Z,19.7
2017-12-10T12:24:04.800Z,19.7
2017-12-10T12:26:07.700Z,19.7
2017-12-10T12:28:05.422Z,19.7
2017-12-10T12:30:12.970Z,19.7
2017-12-10T12:32:05.362Z,19.7
2017-12-10T12:34:05.083Z,19.7
2017-12-10T12:36:04.820Z,19.8
2017-12-10T12:38:13.231Z,19.7
2017-12-10T12:40:05.513Z,19.7
2017-12-10T12:42:04.772Z,19.7
2017-12-10T12:44:05.361Z,19.8
2017-12-10T12:46:05.575Z,19.8
2017-12-10T12:48:07.886Z,19.8
2017-12-10T12:50:10.746Z,19.7
2017-12-10T12:52:04.735Z,19.8
2017-12-10T12:54:08.064Z,19.8
2017-12-10T12:56:07.941Z,19.8
2017-12-10T12:58:04.694Z,19.8
2017-12-10T13:00:10.505Z,19.8
2017-12-10T13:02:05.298Z,19.8
2017-12-10T13:04:13.615Z,19.8
2017-12-10T13:06:04.893Z,19.8
2017-12-10T13:08:07.802Z,19.8
2017-12-10T13:10:07.899Z,19.8
2017-12-10T13:12:04.862Z,19.8
2017-12-10T13:14:05.424Z,19.8
2017-12-10T13:16:05.199Z,19.8
2017-12-10T13:18:04.747Z,19.9
2017-12-10T13:20:09.066Z,19.8
2017-12-10T13:22:04.867Z,19.9
2017-12-10T13:24:05.595Z,19.9
2017-12-10T13:26:05.503Z,19.9
2017-12-10T13:28:05.292Z,19.9
2017-12-10T13:30:07.554Z,19.9
2017-12-10T13:32:05.312Z,19.9
2017-12-10T13:34:05.132Z,19.8
2017-12-10T13:36:05.029Z,19.8
2017-12-10T13:38:09.909Z,19.8
2017-12-10T13:40:07.192Z,19.8
2017-12-10T13:42:05.414Z,19.8
2017-12-10T13:44:05.231Z,19.9
2017-12-10T13:46:07.562Z,19.8
2017-12-10T13:48:10.359Z,19.9
2017-12-10T13:50:05.357Z,19.8
2017-12-10T13:52:04.718Z,19.9
2017-12-10T13:54:07.976Z,19.9
2017-12-10T13:56:04.779Z,19.9
2017-12-10T13:58:05.509Z,19.9
2017-12-10T14:00:04.856Z,19.9
2017-12-10T14:02:04.670Z,19.9
2017-12-10T14:04:05.464Z,19.9
2017-12-10T14:06:04.874Z,19.8
2017-12-10T14:08:05.609Z,19.9
2017-12-10T14:10:04.870Z,19.9
2017-12-10T14:12:04.648Z,19.9
2017-12-10T14:14:13.131Z,19.9
2017-12-10T14:16:04.849Z,19.9
2017-12-10T14:18:07.349Z,19.9
2017-12-10T14:20:05.161Z,19.9
2017-12-10T14:22:04.986Z,19.9
2017-12-10T14:24:04.754Z,19.9
2017-12-10T14:26:05.043Z,19.9
2017-12-10T14:28:04.829Z,19.9
2017-12-10T14:30:04.602Z,19.9
2017-12-10T14:32:05.370Z,19.9
2017-12-10T14:34:05.589Z,19.9
2017-12-10T14:36:05.375Z,19.9
2017-12-10T14:38:20.293Z,19.9
2017-12-10T14:40:05.411Z,19.9
2017-12-10T14:42:05.246Z,19.9
2017-12-10T14:44:04.985Z,19.9
2017-12-10T14:46:04.769Z,19.9
2017-12-10T14:48:08.138Z,19.9
2017-12-10T14:50:04.872Z,19.9
2017-12-10T14:52:09.690Z,19.9
2017-12-10T14:54:05.444Z,19.9
2017-12-10T14:56:10.265Z,19.9
2017-12-10T14:58:04.987Z,19.9
2017-12-10T15:00:04.775Z,19.9
2017-12-10T15:02:05.548Z,20
2017-12-10T15:04:04.717Z,20
2017-12-10T15:06:10.493Z,19.9
2017-12-10T15:08:05.392Z,19.9
2017-12-10T15:10:04.802Z,20
2017-12-10T15:12:05.153Z,20
2017-12-10T15:14:04.904Z,20
2017-12-10T15:16:04.679Z,19.9
2017-12-10T15:18:05.611Z,20
2017-12-10T15:20:04.907Z,19.9
2017-12-10T15:22:04.646Z,19.9
2017-12-10T15:24:05.381Z,19.9
2017-12-10T15:26:04.602Z,20
2017-12-10T15:28:04.861Z,20
2017-12-10T15:30:04.723Z,20
2017-12-10T15:32:05.083Z,20
2017-12-10T15:34:07.402Z,20
2017-12-10T15:36:10.511Z,19.9
2017-12-10T15:38:04.841Z,19.9
2017-12-10T15:40:05.594Z,19.9
2017-12-10T15:42:04.870Z,19.9
2017-12-10T15:44:07.696Z,19.9
2017-12-10T15:46:05.500Z,20
2017-12-10T15:48:10.376Z,20
2017-12-10T15:50:05.115Z,20
2017-12-10T15:52:09.914Z,20
2017-12-10T15:54:04.696Z,20
2017-12-10T15:56:05.021Z,20
2017-12-10T15:58:10.421Z,19.9
2017-12-10T16:00:05.120Z,20
2017-12-10T16:02:04.933Z,20
2017-12-10T16:04:04.724Z,20
2017-12-10T16:06:05.557Z,20
2017-12-10T16:08:05.379Z,20
2017-12-10T16:10:05.144Z,20
2017-12-10T16:12:04.887Z,20
2017-12-10T16:14:04.687Z,20
2017-12-10T16:16:05.497Z,20
2017-12-10T16:18:05.099Z,20
2017-12-10T16:20:05.393Z,20
2017-12-10T16:22:04.674Z,20
2017-12-10T16:24:05.467Z,20
2017-12-10T16:26:05.326Z,20
2017-12-10T16:28:05.081Z,20
2017-12-10T16:30:07.887Z,20
2017-12-10T16:32:05.678Z,20
2017-12-10T16:34:05.432Z,20
2017-12-10T16:36:05.186Z,20
2017-12-10T16:38:04.938Z,20
2017-12-10T16:40:09.730Z,20
2017-12-10T16:42:04.981Z,20
2017-12-10T16:44:04.949Z,20
2017-12-10T16:46:05.472Z,20
2017-12-10T16:48:07.766Z,20
2017-12-10T16:50:05.575Z,20
2017-12-10T16:52:10.435Z,20
2017-12-10T16:54:05.211Z,20
2017-12-10T16:56:05.482Z,20
2017-12-10T16:58:05.291Z,20.1
2017-12-10T17:00:05.666Z,20
2017-12-10T17:02:05.542Z,20
2017-12-10T17:04:08.932Z,20
2017-12-10T17:06:13.294Z,20
2017-12-10T17:08:05.445Z,20
2017-12-10T17:10:05.361Z,20
2017-12-10T17:12:07.671Z,20
2017-12-10T17:14:05.475Z,20
2017-12-10T17:16:07.177Z,20
2017-12-10T17:18:04.651Z,20
2017-12-10T17:20:05.466Z,20
2017-12-10T17:22:05.604Z,20
2017-12-10T17:24:05.589Z,20
2017-12-10T17:26:05.642Z,20
2017-12-10T17:28:05.716Z,20.1
2017-12-10T17:30:11.758Z,20
2017-12-10T17:32:05.085Z,20
2017-12-10T17:34:10.097Z,20
2017-12-10T17:36:07.879Z,20
2017-12-10T17:38:04.962Z,20
2017-12-10T17:40:15.637Z,20.1
2017-12-10T17:42:05.397Z,20.1
2017-12-10T17:44:12.922Z,20.1
2017-12-10T17:46:05.155Z,20.1
2017-12-10T17:48:05.062Z,20.1
2017-12-10T17:50:04.946Z,20.1
2017-12-10T17:52:05.696Z,20.1
2017-12-10T17:54:05.547Z,20.1
2017-12-10T17:56:09.261Z,20.1
2017-12-10T17:58:05.038Z,20.1
2017-12-10T18:00:07.227Z,20.1
2017-12-10T18:02:06.256Z,20.1
2017-12-10T18:04:05.592Z,20.1
2017-12-10T18:06:04.782Z,20.1
2017-12-10T18:08:05.193Z,20.1
2017-12-10T18:10:06.387Z,20.1
2017-12-10T18:12:10.203Z,20.1
2017-12-10T18:14:05.159Z,20.1
2017-12-10T18:16:04.879Z,20.1
2017-12-10T18:18:05.476Z,20.1
2017-12-10T18:20:04.734Z,20.1
2017-12-10T18:22:04.882Z,20.2
2017-12-10T18:24:12.140Z,20.1
2017-12-10T18:28:10.077Z,20.1
2017-12-10T18:30:04.990Z,20.1
2017-12-10T18:32:06.064Z,20.2
2017-12-10T18:34:07.640Z,20.1
2017-12-10T18:36:05.204Z,20.2
2017-12-10T18:38:05.593Z,20.1
2017-12-10T18:40:05.446Z,20.2
2017-12-10T18:42:07.939Z,20.2
2017-12-10T18:44:05.452Z,20.2
2017-12-10T18:46:04.723Z,20.2
2017-12-10T18:48:05.143Z,20.3
2017-12-10T18:50:05.161Z,20.3
2017-12-10T18:52:05.170Z,20.3
2017-12-10T18:54:05.193Z,20.3
2017-12-10T18:56:05.510Z,20.3
2017-12-10T18:58:07.723Z,20.4
2017-12-10T19:00:06.765Z,20.5
2017-12-10T19:02:05.288Z,20.5
2017-12-10T19:04:05.702Z,20.4
2017-12-10T19:06:07.817Z,20.5
2017-12-10T19:08:09.625Z,20.4
2017-12-10T19:10:15.646Z,20.4
2017-12-10T19:14:23.081Z,20.4
2017-12-10T19:16:37.083Z,20.4
2017-12-10T19:18:05.546Z,20.4
2017-12-10T19:20:05.492Z,20.4
2017-12-10T19:22:05.253Z,20.4
2017-12-10T19:24:06.960Z,20.4
2017-12-10T19:26:10.233Z,20.4
2017-12-10T19:28:05.048Z,20.5
2017-12-10T19:30:07.525Z,20.5
2017-12-10T19:32:05.299Z,20.5
2017-12-10T19:34:05.662Z,20.5
2017-12-10T19:36:08.002Z,20.5
2017-12-10T19:38:07.844Z,20.5
2017-12-10T19:40:13.223Z,20.5
2017-12-10T19:42:05.961Z,20.4
2017-12-10T19:44:04.691Z,20.5
2017-12-10T19:46:04.752Z,20.4
2017-12-10T19:48:05.143Z,20.4
2017-12-10T19:50:04.874Z,20.5
2017-12-10T19:52:07.924Z,20.5
2017-12-10T19:54:07.239Z,20.5
2017-12-10T19:56:07.001Z,20.4
2017-12-10T19:58:06.266Z,20.5
2017-12-10T20:00:07.512Z,20.4
2017-12-10T20:02:08.023Z,20.5
2017-12-10T20:04:08.959Z,20.4
2017-12-10T20:06:07.981Z,20.4
2017-12-10T20:08:04.805Z,20.4
2017-12-10T20:10:07.638Z,20.4
2017-12-10T20:12:05.460Z,20.4
2017-12-10T20:14:09.143Z,20.4
2017-12-10T20:16:10.228Z,20.5
2017-12-10T20:18:05.460Z,20.4
2017-12-10T20:20:07.266Z,20.5
2017-12-10T20:22:05.298Z,20.5
2017-12-10T20:24:07.665Z,20.5
2017-12-10T20:26:05.129Z,20.5
2017-12-10T20:28:07.748Z,20.5
2017-12-10T20:30:06.257Z,20.5
2017-12-10T20:32:05.286Z,20.5
2017-12-10T20:34:12.529Z,20.6
2017-12-10T20:36:04.892Z,20.5
2017-12-10T20:38:07.174Z,20.6
2017-12-10T20:40:05.243Z,20.6
2017-12-10T20:42:05.291Z,20.6
2017-12-10T20:44:07.334Z,20.6
2017-12-10T20:46:22.856Z,20.6
2017-12-10T20:48:05.238Z,20.6
2017-12-10T20:50:08.467Z,20.6
2017-12-10T20:52:05.490Z,20.7
2017-12-10T20:54:08.044Z,20.6
2017-12-10T20:56:04.747Z,20.6
2017-12-10T20:58:07.349Z,20.6
2017-12-10T21:00:05.048Z,20.6
2017-12-10T21:02:07.380Z,20.6
2017-12-10T21:04:04.669Z,20.6
2017-12-10T21:06:04.686Z,20.6
2017-12-10T21:08:05.716Z,20.6
2017-12-10T21:10:10.254Z,20.6
2017-12-10T21:12:04.999Z,20.6
2017-12-10T21:14:14.694Z,20.6
2017-12-10T21:16:05.463Z,20.6
2017-12-10T21:18:05.653Z,20.6
2017-12-10T21:20:05.283Z,20.5
2017-12-10T21:22:04.976Z,20.5
2017-12-10T21:24:08.144Z,20.5
2017-12-10T21:26:08.536Z,20.5
2017-12-10T21:28:04.810Z,20.5
2017-12-10T21:30:08.129Z,20.5
2017-12-10T21:32:04.909Z,20.5
2017-12-10T21:34:04.861Z,20.5
2017-12-10T21:36:07.191Z,20.5
2017-12-10T21:38:05.521Z,20.5
2017-12-10T21:40:10.557Z,20.5
2017-12-10T21:42:09.217Z,20.5
2017-12-10T21:44:05.576Z,20.5
2017-12-10T21:46:11.674Z,20.4
2017-12-10T21:48:07.926Z,20.5
2017-12-10T21:50:05.865Z,20.5
2017-12-10T21:52:05.640Z,20.5
2017-12-10T21:54:04.701Z,20.5
2017-12-10T21:56:05.471Z,20.5
2017-12-10T21:58:07.982Z,20.5
2017-12-10T22:00:04.943Z,20.5
2017-12-10T22:02:04.771Z,20.5
2017-12-10T22:04:05.019Z,20.5
2017-12-10T22:06:04.883Z,20.5
2017-12-10T22:08:05.581Z,20.5
2017-12-10T22:10:10.871Z,20.5
2017-12-10T22:12:07.448Z,20.5
2017-12-10T22:14:05.222Z,20.5
2017-12-10T22:16:05.115Z,20.5
2017-12-10T22:18:05.554Z,20.5
2017-12-10T22:20:13.177Z,20.6
2017-12-10T22:22:16.176Z,20.6
2017-12-10T22:24:05.610Z,20.6
2017-12-10T22:26:05.717Z,20.6
2017-12-10T22:28:05.014Z,20.6
2017-12-10T22:30:05.414Z,20.6
2017-12-10T22:32:07.212Z,20.6
2017-12-10T22:34:05.107Z,20.6
2017-12-10T22:36:04.989Z,20.6
2017-12-10T22:38:07.278Z,20.6
2017-12-10T22:40:06.104Z,20.6
2017-12-10T22:42:12.503Z,20.6
2017-12-10T22:44:04.912Z,20.6
2017-12-10T22:46:05.225Z,20.6
2017-12-10T22:48:05.663Z,20.6
2017-12-10T22:50:06.357Z,20.6
2017-12-10T22:52:04.751Z,20.5
2017-12-10T22:54:05.508Z,20.5
2017-12-10T22:56:05.968Z,20.5
2017-12-10T22:58:04.945Z,20.5
2017-12-10T23:00:05.585Z,20.5
2017-12-10T23:02:08.140Z,20.5
2017-12-10T23:04:07.536Z,20.5
2017-12-10T23:06:05.342Z,20.4
2017-12-10T23:08:07.794Z,20.4
2017-12-10T23:10:05.123Z,20.5
2017-12-10T23:12:04.900Z,20.5
2017-12-10T23:14:04.673Z,20.4
2017-12-10T23:16:05.470Z,20.4
2017-12-10T23:18:05.484Z,20.4
2017-12-10T23:20:05.231Z,20.4
2017-12-10T23:22:10.072Z,20.4
2017-12-10T23:24:12.940Z,20.4
2017-12-10T23:26:04.722Z,20.4
2017-12-10T23:28:05.481Z,20.4
2017-12-10T23:30:07.892Z,20.4
2017-12-10T23:32:04.887Z,20.4
2017-12-10T23:34:04.665Z,20.4
2017-12-10T23:36:10.538Z,20.4
2017-12-10T23:38:12.939Z,20.4
2017-12-10T23:40:07.186Z,20.3
2017-12-10T23:42:04.919Z,20.4
2017-12-10T23:44:04.652Z,20.4
2017-12-10T23:46:05.504Z,20.3
2017-12-10T23:48:04.829Z,20.4
2017-12-10T23:50:05.700Z,20.4
2017-12-10T23:52:05.497Z,20.3
2017-12-10T23:54:05.198Z,20.4
2017-12-10T23:56:05.232Z,20.3
2017-12-10T23:58:07.558Z,20.3
